Time;durP1;ratioP1;P1;durP2;ratioP2;P2;SDS_P1;SDS_P2;PMS_P1;PMS_P2;Temp;Humidity;BMP_temperature;BMP_pressure;BME280_temperature;BME280_humidity;BME280_pressure;Samples;Min_cycle;Max_cycle;Signal;HPM_P1;HPM_P2
2021/05/20 00:00:22;;;;;;;14.55;12.13;;;;;;;;;;2065195;28;20170;-56
2021/05/20 00:01:23;;;;;;;13.77;11.90;;;;;;;;;;2053840;28;20178;-58
2021/05/20 00:02:23;;;;;;;14.02;12.68;;;;;;;;;;2054542;28;20656;-54
2021/05/20 00:03:23;;;;;;;13.80;12.40;;;;;;;;;;2065055;28;20178;-56
2021/05/20 00:04:24;;;;;;;14.13;12.70;;;;;;;;;;2064883;28;20188;-52
2021/05/20 00:05:24;;;;;;;13.20;11.90;;;;;;;;;;2061728;28;20257;-53
2021/05/20 00:06:25;;;;;;;13.63;12.23;;;;;;;;;;2064247;28;20649;-53
2021/05/20 00:07:25;;;;;;;20.63;13.57;;;;;;;;;;2059827;28;20209;-54
2021/05/20 00:08:25;;;;;;;14.75;13.25;;;;;;;;;;2063265;28;20599;-54
2021/05/20 00:09:26;;;;;;;13.90;12.50;;;;;;;;;;2063388;28;20304;-54
2021/05/20 00:10:26;;;;;;;12.68;11.55;;;;;;;;;;2061041;28;20221;-54
2021/05/20 00:11:26;;;;;;;14.73;12.63;;;;;;;;;;2053778;28;20660;-53
2021/05/20 00:12:26;;;;;;;13.48;12.10;;;;;;;;;;2057007;28;20178;-53
2021/05/20 00:13:27;;;;;;;14.45;12.93;;;;;;;;;;2065190;28;20197;-55
2021/05/20 00:14:28;;;;;;;13.95;12.55;;;;;;;;;;2063121;28;20201;-56
2021/05/20 00:15:28;;;;;;;15.82;12.73;;;;;;;;;;2067805;28;20178;-55
2021/05/20 00:16:29;;;;;;;14.18;12.70;;;;;;;;;;2054155;28;20190;-54
2021/05/20 00:17:29;;;;;;;14.15;12.82;;;;;;;;;;2055656;28;20194;-56
2021/05/20 00:18:29;;;;;;;14.25;12.80;;;;;;;;;;2064679;28;20649;-55
2021/05/20 00:19:30;;;;;;;14.40;12.00;;;;;;;;;;2062438;28;20166;-58
2021/05/20 00:20:30;;;;;;;14.32;12.85;;;;;;;;;;2057818;28;20269;-58
2021/05/20 00:21:31;;;;;;;13.40;12.10;;;;;;;;;;2058020;28;20166;-57
2021/05/20 00:22:31;;;;;;;13.30;11.80;;;;;;;;;;2066937;28;20213;-56
2021/05/20 00:23:31;;;;;;;14.30;12.73;;;;;;;;;;2061779;28;20204;-56
2021/05/20 00:24:32;;;;;;;14.07;12.75;;;;;;;;;;2048115;28;20175;-55
2021/05/20 00:25:32;;;;;;;14.30;12.80;;;;;;;;;;2044775;29;20239;-54
2021/05/20 00:26:33;;;;;;;14.10;12.63;;;;;;;;;;2057050;28;20182;-58
2021/05/20 00:27:33;;;;;;;17.17;12.90;;;;;;;;;;2046324;29;20529;-58
2021/05/20 00:28:33;;;;;;;13.87;12.43;;;;;;;;;;2040706;29;20168;-56
2021/05/20 00:29:34;;;;;;;13.55;11.80;;;;;;;;;;2048955;28;20186;-56
2021/05/20 00:30:34;;;;;;;17.73;13.27;;;;;;;;;;2064625;28;20182;-54
2021/05/20 00:31:35;;;;;;;15.13;13.50;;;;;;;;;;2051532;28;20183;-54
2021/05/20 00:32:35;;;;;;;14.82;13.10;;;;;;;;;;2054976;28;20188;-56
2021/05/20 00:33:36;;;;;;;14.68;13.27;;;;;;;;;;2055643;28;20195;-55
2021/05/20 00:34:36;;;;;;;13.65;12.35;;;;;;;;;;2056462;28;20277;-55
2021/05/20 00:35:37;;;;;;;14.35;12.85;;;;;;;;;;2062603;28;20184;-54
2021/05/20 00:36:38;;;;;;;13.45;11.88;;;;;;;;;;2066437;28;20185;-56
2021/05/20 00:37:38;;;;;;;13.30;11.93;;;;;;;;;;2064447;28;20636;-57
2021/05/20 00:38:38;;;;;;;16.13;14.27;;;;;;;;;;2056164;28;20205;-55
2021/05/20 00:39:39;;;;;;;16.23;14.63;;;;;;;;;;2055997;28;20273;-55
2021/05/20 00:40:39;;;;;;;16.40;14.63;;;;;;;;;;2063557;28;20186;-57
2021/05/20 00:41:40;;;;;;;17.35;15.38;;;;;;;;;;2056856;28;20191;-54
2021/05/20 00:42:47;;;;;;;19.47;16.07;;;;;;;;;;2048382;28;20249;-56
2021/05/20 00:43:47;;;;;;;16.35;14.63;;;;;;;;;;2054962;28;20198;-58
2021/05/20 00:44:55;;;;;;;16.10;14.35;;;;;;;;;;2060710;28;20300;-55
2021/05/20 00:45:55;;;;;;;17.40;15.07;;;;;;;;;;2061381;28;20178;-53
2021/05/20 00:46:56;;;;;;;18.07;16.00;;;;;;;;;;2062475;28;20235;-55
2021/05/20 00:47:56;;;;;;;17.60;15.77;;;;;;;;;;2055926;28;20266;-53
2021/05/20 00:48:56;;;;;;;19.20;16.05;;;;;;;;;;2053764;28;20230;-53
2021/05/20 00:49:57;;;;;;;17.08;15.27;;;;;;;;;;2052407;28;20178;-52
2021/05/20 00:50:58;;;;;;;16.03;14.33;;;;;;;;;;2061840;28;20192;-50
2021/05/20 00:51:58;;;;;;;17.95;15.43;;;;;;;;;;2065317;28;20206;-56
2021/05/20 00:52:58;;;;;;;16.00;14.47;;;;;;;;;;2061236;28;20246;-55
2021/05/20 00:53:59;;;;;;;17.08;15.15;;;;;;;;;;2056692;28;20198;-54
2021/05/20 00:55:01;;;;;;;18.60;16.50;;;;;;;;;;2056743;28;20634;-58
2021/05/20 00:56:02;;;;;;;16.25;14.55;;;;;;;;;;2065366;28;20256;-54
2021/05/20 00:57:03;;;;;;;19.13;16.60;;;;;;;;;;2063983;28;20181;-56
2021/05/20 00:58:04;;;;;;;17.92;15.00;;;;;;;;;;2061332;28;20196;-54
2021/05/20 00:59:05;;;;;;;17.45;14.73;;;;;;;;;;2060447;28;20202;-53
2021/05/20 01:00:07;;;;;;;17.73;14.63;;;;;;;;;;2062720;28;20213;-53
2021/05/20 01:01:07;;;;;;;16.40;14.73;;;;;;;;;;2061721;28;20187;-53
2021/05/20 01:02:09;;;;;;;16.65;14.65;;;;;;;;;;2061324;28;20628;-54
2021/05/20 01:03:10;;;;;;;16.20;13.77;;;;;;;;;;2053192;28;20262;-55
2021/05/20 01:04:10;;;;;;;17.65;15.50;;;;;;;;;;2046937;28;20198;-53
2021/05/20 01:05:11;;;;;;;17.17;14.60;;;;;;;;;;2052512;28;20199;-56
2021/05/20 01:06:12;;;;;;;19.70;15.80;;;;;;;;;;2065114;28;20628;-53
2021/05/20 01:07:12;;;;;;;16.38;14.55;;;;;;;;;;2055324;28;20202;-53
2021/05/20 01:08:12;;;;;;;19.30;15.23;;;;;;;;;;2054102;28;20311;-50
2021/05/20 01:09:13;;;;;;;21.25;16.50;;;;;;;;;;2057943;28;20229;-56
2021/05/20 01:10:13;;;;;;;21.65;16.85;;;;;;;;;;2045334;28;20183;-56
2021/05/20 01:11:13;;;;;;;19.48;15.63;;;;;;;;;;2037830;29;20188;-56
2021/05/20 01:12:14;;;;;;;19.55;16.40;;;;;;;;;;2047117;29;20182;-55
2021/05/20 01:13:14;;;;;;;19.05;14.85;;;;;;;;;;2056652;28;20548;-55
2021/05/20 01:14:15;;;;;;;17.77;15.88;;;;;;;;;;2056740;28;20300;-53
2021/05/20 01:15:22;;;;;;;16.20;14.48;;;;;;;;;;2055142;28;20205;-55
2021/05/20 01:16:23;;;;;;;16.67;14.10;;;;;;;;;;2055495;28;20178;-53
2021/05/20 01:17:25;;;;;;;16.20;14.52;;;;;;;;;;2066669;28;20718;-52
2021/05/20 01:18:25;;;;;;;19.35;14.35;;;;;;;;;;2065745;28;20201;-57
2021/05/20 01:19:26;;;;;;;15.57;13.80;;;;;;;;;;2055975;28;20217;-56
2021/05/20 01:20:30;;;;;;;15.73;14.03;;;;;;;;;;2055359;28;20201;-55
2021/05/20 01:21:30;;;;;;;14.93;13.15;;;;;;;;;;2062126;28;20256;-54
2021/05/20 01:22:31;;;;;;;17.10;13.93;;;;;;;;;;2061503;28;20180;-54
2021/05/20 01:23:31;;;;;;;15.60;13.68;;;;;;;;;;2064045;28;20184;-54
2021/05/20 01:24:31;;;;;;;16.80;13.90;;;;;;;;;;2060491;28;20192;-57
2021/05/20 01:25:32;;;;;;;17.13;13.95;;;;;;;;;;2061598;28;20186;-54
2021/05/20 01:26:36;;;;;;;16.90;14.80;;;;;;;;;;2061698;28;20205;-54
2021/05/20 01:27:37;;;;;;;17.48;14.77;;;;;;;;;;2050585;28;20190;-57
2021/05/20 01:28:38;;;;;;;16.92;13.63;;;;;;;;;;2051584;28;20214;-55
2021/05/20 01:29:42;;;;;;;16.02;14.27;;;;;;;;;;2062727;28;20203;-56
2021/05/20 01:30:44;;;;;;;16.70;14.30;;;;;;;;;;2061618;28;20265;-53
2021/05/20 01:31:44;;;;;;;17.23;14.10;;;;;;;;;;2055400;28;20178;-56
2021/05/20 01:32:44;;;;;;;16.03;14.37;;;;;;;;;;2044263;28;20299;-57
2021/05/20 01:33:44;;;;;;;16.77;14.43;;;;;;;;;;2054998;28;20202;-56
2021/05/20 01:34:54;;;;;;;17.37;14.93;;;;;;;;;;2062199;28;20176;-56
2021/05/20 01:35:55;;;;;;;16.00;14.25;;;;;;;;;;2061469;28;20170;-57
2021/05/20 01:36:55;;;;;;;17.23;15.30;;;;;;;;;;2063403;28;20264;-54
2021/05/20 01:38:14;;;;;;;17.05;14.02;;;;;;;;;;2061190;28;20273;-53
2021/05/20 01:39:14;;;;;;;17.90;15.48;;;;;;;;;;2052748;28;20186;-53
2021/05/20 01:40:14;;;;;;;17.27;15.00;;;;;;;;;;2044857;29;20866;-54
2021/05/20 01:41:15;;;;;;;17.75;14.95;;;;;;;;;;2053653;28;20691;-55
2021/05/20 01:42:15;;;;;;;16.27;14.50;;;;;;;;;;2061530;28;20190;-57
2021/05/20 01:43:15;;;;;;;18.77;15.77;;;;;;;;;;2060507;28;20173;-58
2021/05/20 01:44:16;;;;;;;19.63;16.90;;;;;;;;;;2064096;28;20192;-56
2021/05/20 01:45:16;;;;;;;19.87;17.23;;;;;;;;;;2059981;28;20182;-54
2021/05/20 01:46:16;;;;;;;22.50;18.95;;;;;;;;;;2058771;28;20760;-53
2021/05/20 01:47:17;;;;;;;21.10;17.90;;;;;;;;;;2064468;28;20257;-54
2021/05/20 01:48:17;;;;;;;24.83;19.20;;;;;;;;;;2062478;28;20182;-53
2021/05/20 01:49:17;;;;;;;23.33;18.77;;;;;;;;;;2063538;28;20178;-56
2021/05/20 01:50:20;;;;;;;23.52;18.55;;;;;;;;;;2053115;28;20233;-54
2021/05/20 01:51:21;;;;;;;27.83;20.20;;;;;;;;;;2053253;28;20174;-50
2021/05/20 01:52:21;;;;;;;25.90;20.27;;;;;;;;;;2062854;28;20197;-57
2021/05/20 01:53:22;;;;;;;29.23;19.47;;;;;;;;;;2060774;28;20272;-56
2021/05/20 01:54:22;;;;;;;27.60;19.50;;;;;;;;;;2060322;28;20182;-55
2021/05/20 01:55:22;;;;;;;24.60;18.60;;;;;;;;;;2059147;28;20190;-53
2021/05/20 01:56:24;;;;;;;22.50;18.70;;;;;;;;;;2059316;28;20221;-56
2021/05/20 01:57:25;;;;;;;24.08;19.00;;;;;;;;;;2064221;28;20182;-54
2021/05/20 01:58:25;;;;;;;22.47;17.63;;;;;;;;;;2069266;28;20170;-59
2021/05/20 01:59:26;;;;;;;21.38;17.05;;;;;;;;;;2070598;28;20197;-59
2021/05/20 02:00:26;;;;;;;22.00;17.70;;;;;;;;;;2066478;28;20189;-56
2021/05/20 02:01:26;;;;;;;20.97;16.60;;;;;;;;;;2064767;28;20177;-58
2021/05/20 02:02:26;;;;;;;19.47;16.43;;;;;;;;;;2060525;28;20557;-55
2021/05/20 02:03:27;;;;;;;21.53;16.27;;;;;;;;;;2061197;28;20177;-57
2021/05/20 02:04:27;;;;;;;18.93;16.00;;;;;;;;;;2062694;28;20274;-55
2021/05/20 02:05:28;;;;;;;22.02;17.95;;;;;;;;;;2062016;28;20952;-56
2021/05/20 02:06:28;;;;;;;22.48;17.77;;;;;;;;;;2063650;28;20232;-56
2021/05/20 02:07:28;;;;;;;21.13;17.25;;;;;;;;;;2062262;28;20178;-55
2021/05/20 02:08:29;;;;;;;24.05;19.13;;;;;;;;;;2060944;28;20181;-53
2021/05/20 02:09:29;;;;;;;25.53;20.63;;;;;;;;;;2062153;28;20205;-54
2021/05/20 02:10:29;;;;;;;28.60;21.23;;;;;;;;;;2063725;28;20180;-53
2021/05/20 02:11:29;;;;;;;26.20;21.60;;;;;;;;;;2052982;28;20206;-53
2021/05/20 02:12:30;;;;;;;31.17;23.67;;;;;;;;;;2054775;28;20647;-52
2021/05/20 02:13:30;;;;;;;30.33;23.35;;;;;;;;;;2065160;28;20814;-55
2021/05/20 02:14:30;;;;;;;30.50;21.00;;;;;;;;;;2061686;28;20539;-54
2021/05/20 02:15:31;;;;;;;24.40;19.90;;;;;;;;;;2061884;28;20173;-55
2021/05/20 02:16:31;;;;;;;26.17;19.58;;;;;;;;;;2066435;28;20513;-57
2021/05/20 02:17:32;;;;;;;27.90;21.10;;;;;;;;;;2047255;28;20657;-58
2021/05/20 02:18:32;;;;;;;30.63;21.80;;;;;;;;;;2050581;28;20568;-55
2021/05/20 02:19:33;;;;;;;31.87;22.40;;;;;;;;;;2059366;28;20201;-56
2021/05/20 02:20:34;;;;;;;29.37;21.77;;;;;;;;;;2059501;28;20174;-58
2021/05/20 02:21:34;;;;;;;28.43;21.37;;;;;;;;;;2063200;28;20225;-56
2021/05/20 02:22:34;;;;;;;28.23;21.30;;;;;;;;;;2062962;28;20169;-55
2021/05/20 02:23:35;;;;;;;25.73;18.50;;;;;;;;;;2062776;28;20173;-57
2021/05/20 02:24:35;;;;;;;27.75;19.33;;;;;;;;;;2063356;28;20209;-57
2021/05/20 02:25:35;;;;;;;23.73;18.83;;;;;;;;;;2065446;28;20224;-57
2021/05/20 02:26:36;;;;;;;25.30;18.63;;;;;;;;;;2063340;28;20177;-59
2021/05/20 02:27:36;;;;;;;26.15;18.75;;;;;;;;;;2064981;28;20204;-57
2021/05/20 02:28:36;;;;;;;27.43;20.20;;;;;;;;;;2063078;28;20178;-54
2021/05/20 02:29:36;;;;;;;28.37;21.37;;;;;;;;;;2063237;28;20601;-57
2021/05/20 02:30:37;;;;;;;28.70;22.20;;;;;;;;;;2065638;28;20185;-54
2021/05/20 02:31:37;;;;;;;27.07;20.87;;;;;;;;;;2062699;28;20272;-56
2021/05/20 02:32:37;;;;;;;26.30;19.75;;;;;;;;;;2065189;28;20324;-54
2021/05/20 02:33:38;;;;;;;25.33;19.13;;;;;;;;;;2061759;28;21611;-55
2021/05/20 02:34:38;;;;;;;23.07;19.07;;;;;;;;;;2055087;28;20313;-53
2021/05/20 02:35:38;;;;;;;23.53;19.00;;;;;;;;;;2054574;28;20274;-58
2021/05/20 02:36:38;;;;;;;25.00;19.43;;;;;;;;;;2064219;28;20216;-57
2021/05/20 02:37:39;;;;;;;26.20;19.63;;;;;;;;;;2064799;28;20554;-54
2021/05/20 02:38:39;;;;;;;23.13;17.43;;;;;;;;;;2063912;28;20189;-56
2021/05/20 02:39:39;;;;;;;22.00;18.38;;;;;;;;;;2062558;28;20197;-55
2021/05/20 02:40:40;;;;;;;24.97;18.83;;;;;;;;;;2063889;28;20208;-52
2021/05/20 02:41:40;;;;;;;23.13;18.53;;;;;;;;;;2054635;28;20269;-54
2021/05/20 02:42:40;;;;;;;24.50;18.77;;;;;;;;;;2056056;28;20664;-57
2021/05/20 02:43:40;;;;;;;25.73;18.80;;;;;;;;;;2063049;28;20224;-56
2021/05/20 02:44:41;;;;;;;25.23;18.83;;;;;;;;;;2060244;28;20201;-56
2021/05/20 02:45:41;;;;;;;26.60;18.33;;;;;;;;;;2061835;28;20202;-55
2021/05/20 02:46:41;;;;;;;24.67;19.33;;;;;;;;;;2063507;28;20189;-56
2021/05/20 02:47:42;;;;;;;24.30;19.30;;;;;;;;;;2064237;28;20261;-56
2021/05/20 02:48:43;;;;;;;23.58;19.30;;;;;;;;;;2063477;28;20249;-54
2021/05/20 02:49:43;;;;;;;25.10;19.77;;;;;;;;;;2064272;28;20181;-57
2021/05/20 02:50:44;;;;;;;24.40;20.10;;;;;;;;;;2063455;28;20170;-54
2021/05/20 02:51:44;;;;;;;21.23;18.30;;;;;;;;;;2064153;28;20539;-53
2021/05/20 02:52:44;;;;;;;26.88;18.73;;;;;;;;;;2065569;28;20177;-53
2021/05/20 02:53:45;;;;;;;21.73;18.97;;;;;;;;;;2064263;28;20672;-54
2021/05/20 02:54:45;;;;;;;28.40;20.53;;;;;;;;;;2062125;28;20174;-52
2021/05/20 02:55:45;;;;;;;24.47;20.13;;;;;;;;;;2066197;28;20220;-56
2021/05/20 02:56:45;;;;;;;24.10;18.83;;;;;;;;;;2062308;28;20187;-53
2021/05/20 02:57:51;;;;;;;24.83;19.53;;;;;;;;;;2064980;28;20185;-58
2021/05/20 02:58:52;;;;;;;25.13;19.27;;;;;;;;;;2060244;28;20189;-61
2021/05/20 02:59:52;;;;;;;23.75;19.35;;;;;;;;;;2063072;28;20181;-55
2021/05/20 03:00:52;;;;;;;27.73;20.90;;;;;;;;;;2063399;28;20238;-57
2021/05/20 03:01:53;;;;;;;21.40;18.53;;;;;;;;;;2063447;28;20194;-56
2021/05/20 03:02:53;;;;;;;27.43;21.07;;;;;;;;;;2064348;28;20182;-56
2021/05/20 03:03:53;;;;;;;27.07;21.10;;;;;;;;;;2062883;28;20202;-52
2021/05/20 03:04:53;;;;;;;29.20;22.10;;;;;;;;;;2066825;28;20214;-53
2021/05/20 03:05:57;;;;;;;30.77;21.67;;;;;;;;;;2063453;28;20237;-53
2021/05/20 03:06:58;;;;;;;25.20;19.57;;;;;;;;;;2065494;28;20216;-55
2021/05/20 03:07:58;;;;;;;26.10;20.53;;;;;;;;;;2059015;28;20178;-58
2021/05/20 03:08:59;;;;;;;27.43;20.77;;;;;;;;;;2054153;28;20182;-54
2021/05/20 03:09:59;;;;;;;29.90;21.33;;;;;;;;;;2051973;28;20241;-56
2021/05/20 03:10:59;;;;;;;26.47;21.87;;;;;;;;;;2063489;28;20178;-55
2021/05/20 03:12:00;;;;;;;28.47;22.70;;;;;;;;;;2063368;28;20178;-56
2021/05/20 03:13:00;;;;;;;29.37;22.30;;;;;;;;;;2064148;28;20182;-56
2021/05/20 03:14:01;;;;;;;29.77;22.60;;;;;;;;;;2074462;23;20201;-61
2021/05/20 03:15:02;;;;;;;26.00;21.33;;;;;;;;;;2072603;28;20647;-60
2021/05/20 03:16:02;;;;;;;26.80;21.40;;;;;;;;;;2072380;28;20173;-55
2021/05/20 03:17:09;;;;;;;29.50;20.40;;;;;;;;;;2069121;28;20886;-53
2021/05/20 03:18:09;;;;;;;26.97;19.73;;;;;;;;;;2074991;28;20264;-55
2021/05/20 03:19:10;;;;;;;24.33;19.20;;;;;;;;;;2073733;28;20189;-57
2021/05/20 03:20:10;;;;;;;24.53;19.37;;;;;;;;;;2065479;28;20217;-57
2021/05/20 03:21:11;;;;;;;25.90;20.00;;;;;;;;;;2063691;28;20181;-59
2021/05/20 03:22:11;;;;;;;26.37;19.40;;;;;;;;;;2073208;28;20189;-58
2021/05/20 03:23:11;;;;;;;27.27;20.20;;;;;;;;;;2076269;28;20181;-57
2021/05/20 03:24:12;;;;;;;27.23;20.50;;;;;;;;;;2063809;28;20198;-58
2021/05/20 03:25:13;;;;;;;24.93;20.50;;;;;;;;;;2064904;28;20207;-54
2021/05/20 03:26:13;;;;;;;26.87;21.00;;;;;;;;;;2070830;28;20197;-56
2021/05/20 03:27:13;;;;;;;25.43;19.67;;;;;;;;;;2071013;28;21773;-56
2021/05/20 03:28:13;;;;;;;25.37;19.07;;;;;;;;;;2070905;28;20262;-58
2021/05/20 03:29:14;;;;;;;25.20;19.13;;;;;;;;;;2072422;28;20173;-57
2021/05/20 03:30:14;;;;;;;26.42;19.67;;;;;;;;;;2062808;28;20221;-54
2021/05/20 03:31:15;;;;;;;27.70;21.33;;;;;;;;;;2061273;28;20664;-55
2021/05/20 03:32:15;;;;;;;24.17;18.90;;;;;;;;;;2062443;28;20211;-56
2021/05/20 03:33:15;;;;;;;25.73;19.87;;;;;;;;;;2071459;28;20177;-58
2021/05/20 03:34:15;;;;;;;26.37;20.03;;;;;;;;;;2062598;28;20280;-56
2021/05/20 03:35:16;;;;;;;26.63;19.87;;;;;;;;;;2062674;28;20188;-57
2021/05/20 03:36:16;;;;;;;24.33;19.77;;;;;;;;;;2071542;28;20200;-57
2021/05/20 03:37:16;;;;;;;29.60;21.07;;;;;;;;;;2063011;28;20724;-59
2021/05/20 03:38:16;;;;;;;27.23;20.10;;;;;;;;;;2062709;28;20196;-58
2021/05/20 03:39:17;;;;;;;26.93;19.87;;;;;;;;;;2072413;28;20523;-57
2021/05/20 03:40:17;;;;;;;25.00;18.40;;;;;;;;;;2073828;28;21091;-57
2021/05/20 03:41:17;;;;;;;26.70;18.30;;;;;;;;;;2071135;28;20181;-56
2021/05/20 03:42:17;;;;;;;28.90;19.60;;;;;;;;;;2072372;28;20188;-55
2021/05/20 03:43:18;;;;;;;26.63;19.83;;;;;;;;;;2074873;28;20615;-59
2021/05/20 03:44:18;;;;;;;24.97;18.90;;;;;;;;;;2070099;28;20678;-57
2021/05/20 03:45:18;;;;;;;26.10;18.50;;;;;;;;;;2070570;28;20564;-56
2021/05/20 03:46:19;;;;;;;24.13;19.17;;;;;;;;;;2064132;28;20591;-55
2021/05/20 03:47:20;;;;;;;24.80;19.77;;;;;;;;;;2053555;28;20178;-58
2021/05/20 03:48:20;;;;;;;24.80;18.93;;;;;;;;;;2066932;28;20181;-55
2021/05/20 03:49:20;;;;;;;24.93;19.00;;;;;;;;;;2067014;28;20651;-56
2021/05/20 03:50:21;;;;;;;27.70;19.23;;;;;;;;;;2070329;28;20177;-55
2021/05/20 03:51:21;;;;;;;24.67;18.93;;;;;;;;;;2070660;28;20165;-56
2021/05/20 03:52:21;;;;;;;25.23;19.30;;;;;;;;;;2067483;28;20180;-57
2021/05/20 03:53:21;;;;;;;22.20;17.77;;;;;;;;;;2071255;28;20208;-57
2021/05/20 03:54:23;;;;;;;22.27;18.37;;;;;;;;;;2071689;28;20687;-58
2021/05/20 03:55:23;;;;;;;24.30;19.50;;;;;;;;;;2071894;28;20225;-59
2021/05/20 03:56:24;;;;;;;25.27;19.17;;;;;;;;;;2069815;28;20682;-60
2021/05/20 03:57:24;;;;;;;21.20;18.93;;;;;;;;;;2070662;28;20226;-60
2021/05/20 03:58:25;;;;;;;24.50;19.23;;;;;;;;;;2069780;28;20632;-59
2021/05/20 03:59:25;;;;;;;24.87;19.57;;;;;;;;;;2071278;28;20181;-60
2021/05/20 04:00:25;;;;;;;23.27;19.30;;;;;;;;;;2069118;28;20632;-58
2021/05/20 04:01:25;;;;;;;26.77;19.33;;;;;;;;;;2062343;28;20166;-56
2021/05/20 04:02:25;;;;;;;23.43;18.83;;;;;;;;;;2060570;28;20207;-60
2021/05/20 04:03:30;;;;;;;25.97;19.17;;;;;;;;;;2070677;28;20166;-59
2021/05/20 04:04:30;;;;;;;22.17;19.70;;;;;;;;;;2068143;28;20337;-58
2021/05/20 04:05:30;;;;;;;26.03;20.63;;;;;;;;;;2070928;28;20719;-59
2021/05/20 04:06:30;;;;;;;27.80;20.27;;;;;;;;;;2062473;28;20186;-57
2021/05/20 04:07:41;;;;;;;23.57;19.80;;;;;;;;;;2064715;28;20209;-59
2021/05/20 04:08:42;;;;;;;27.10;20.47;;;;;;;;;;2060228;28;20265;-59
2021/05/20 04:09:42;;;;;;;22.40;19.93;;;;;;;;;;2062385;28;20276;-58
2021/05/20 04:10:42;;;;;;;25.00;19.37;;;;;;;;;;2070725;28;20199;-58
2021/05/20 04:11:42;;;;;;;25.70;20.27;;;;;;;;;;2070334;28;20188;-55
2021/05/20 04:12:43;;;;;;;22.73;19.00;;;;;;;;;;2063849;28;20205;-59
2021/05/20 04:13:43;;;;;;;23.60;19.17;;;;;;;;;;2061454;28;20243;-58
2021/05/20 04:14:44;;;;;;;20.93;17.97;;;;;;;;;;2060970;28;20201;-57
2021/05/20 04:15:44;;;;;;;22.93;18.40;;;;;;;;;;2072447;28;20212;-60
2021/05/20 04:16:44;;;;;;;26.13;20.07;;;;;;;;;;2071274;28;20215;-59
2021/05/20 04:17:45;;;;;;;29.47;21.17;;;;;;;;;;2067773;28;20177;-59
2021/05/20 04:18:45;;;;;;;26.33;19.07;;;;;;;;;;2069724;28;20212;-60
2021/05/20 04:19:46;;;;;;;26.93;21.13;;;;;;;;;;2073086;28;20694;-57
2021/05/20 04:20:46;;;;;;;24.27;18.93;;;;;;;;;;2070973;28;20527;-59
2021/05/20 04:21:47;;;;;;;25.13;18.93;;;;;;;;;;2070296;28;20192;-58
2021/05/20 04:22:47;;;;;;;24.47;19.97;;;;;;;;;;2071937;28;20184;-59
2021/05/20 04:23:48;;;;;;;27.50;19.50;;;;;;;;;;2063410;28;20237;-59
2021/05/20 04:24:48;;;;;;;26.37;19.50;;;;;;;;;;2062462;28;20240;-58
2021/05/20 04:25:49;;;;;;;24.92;19.48;;;;;;;;;;2071486;28;20802;-56
2021/05/20 04:26:49;;;;;;;23.98;20.42;;;;;;;;;;2071151;28;20184;-60
2021/05/20 04:27:49;;;;;;;24.65;19.77;;;;;;;;;;2064263;28;20170;-60
2021/05/20 04:28:49;;;;;;;26.00;20.97;;;;;;;;;;2063208;28;20597;-59
2021/05/20 04:29:50;;;;;;;25.10;19.90;;;;;;;;;;2070971;28;20206;-57
2021/05/20 04:30:50;;;;;;;25.20;20.55;;;;;;;;;;2072955;28;20228;-55
2021/05/20 04:31:50;;;;;;;25.27;20.70;;;;;;;;;;2072929;28;20211;-56
2021/05/20 04:32:53;;;;;;;26.17;20.67;;;;;;;;;;2069574;28;20172;-57
2021/05/20 04:33:53;;;;;;;29.10;21.17;;;;;;;;;;2070251;28;20162;-60
2021/05/20 04:34:55;;;;;;;29.38;22.80;;;;;;;;;;2066604;28;20195;-58
2021/05/20 04:35:56;;;;;;;27.33;21.83;;;;;;;;;;2061649;28;20198;-58
2021/05/20 04:36:56;;;;;;;27.83;21.15;;;;;;;;;;2065947;28;20192;-57
2021/05/20 04:37:56;;;;;;;29.02;20.67;;;;;;;;;;2067189;28;20188;-58
2021/05/20 04:38:56;;;;;;;26.67;20.63;;;;;;;;;;2063660;28;20205;-59
2021/05/20 04:39:57;;;;;;;23.53;18.57;;;;;;;;;;2056618;28;20174;-57
2021/05/20 04:40:57;;;;;;;24.95;19.73;;;;;;;;;;2052783;28;20231;-57
2021/05/20 04:41:57;;;;;;;25.23;18.60;;;;;;;;;;2061247;28;20174;-58
2021/05/20 04:42:57;;;;;;;24.63;19.67;;;;;;;;;;2069798;28;20182;-57
2021/05/20 04:43:58;;;;;;;24.88;19.55;;;;;;;;;;2070169;28;20265;-59
2021/05/20 04:44:58;;;;;;;22.33;18.85;;;;;;;;;;2061271;28;20198;-58
2021/05/20 04:45:59;;;;;;;23.15;18.73;;;;;;;;;;2060140;28;20162;-57
2021/05/20 04:46:59;;;;;;;25.90;20.00;;;;;;;;;;2060043;28;20182;-58
2021/05/20 04:47:59;;;;;;;23.20;19.58;;;;;;;;;;2060547;28;20220;-58
2021/05/20 04:49:02;;;;;;;25.13;20.20;;;;;;;;;;2061542;28;20784;-54
2021/05/20 04:50:02;;;;;;;27.13;21.88;;;;;;;;;;2060705;28;20176;-56
2021/05/20 04:51:03;;;;;;;30.87;22.90;;;;;;;;;;2069360;28;20625;-59
2021/05/20 04:52:03;;;;;;;28.58;22.55;;;;;;;;;;2069079;28;20228;-58
2021/05/20 04:53:03;;;;;;;28.98;21.40;;;;;;;;;;2069601;28;20174;-56
2021/05/20 04:54:05;;;;;;;34.40;22.92;;;;;;;;;;2069148;28;20205;-57
2021/05/20 04:55:05;;;;;;;36.75;26.20;;;;;;;;;;2070529;28;20700;-58
2021/05/20 04:56:06;;;;;;;33.47;25.42;;;;;;;;;;2068632;28;20175;-59
2021/05/20 04:57:06;;;;;;;39.60;27.77;;;;;;;;;;2069742;28;20288;-56
2021/05/20 04:58:06;;;;;;;37.92;28.23;;;;;;;;;;2068060;28;20252;-59
2021/05/20 04:59:06;;;;;;;37.35;28.23;;;;;;;;;;2071003;28;20658;-57
2021/05/20 05:00:08;;;;;;;43.88;30.38;;;;;;;;;;2068213;28;20525;-58
2021/05/20 05:01:08;;;;;;;43.53;30.38;;;;;;;;;;2061193;28;20173;-57
2021/05/20 05:02:08;;;;;;;35.65;27.63;;;;;;;;;;2061639;28;20189;-58
2021/05/20 05:03:09;;;;;;;38.40;28.83;;;;;;;;;;2059503;28;20249;-56
2021/05/20 05:04:09;;;;;;;47.97;33.47;;;;;;;;;;2059662;28;20235;-57
2021/05/20 05:05:09;;;;;;;43.22;31.40;;;;;;;;;;2069702;28;20301;-58
2021/05/20 05:06:10;;;;;;;46.70;32.25;;;;;;;;;;2069491;28;20271;-57
2021/05/20 05:07:10;;;;;;;44.17;31.88;;;;;;;;;;2068244;28;20200;-55
2021/05/20 05:08:10;;;;;;;42.22;31.23;;;;;;;;;;2059786;28;20186;-58
2021/05/20 05:09:10;;;;;;;40.08;30.00;;;;;;;;;;2062506;28;20268;-56
2021/05/20 05:10:11;;;;;;;40.38;31.67;;;;;;;;;;2060816;28;20196;-57
2021/05/20 05:11:11;;;;;;;39.28;29.05;;;;;;;;;;2054780;28;20273;-58
2021/05/20 05:12:12;;;;;;;39.80;29.70;;;;;;;;;;2064220;28;20228;-56
2021/05/20 05:13:12;;;;;;;40.08;29.85;;;;;;;;;;2072215;28;20264;-60
2021/05/20 05:14:12;;;;;;;38.30;29.25;;;;;;;;;;2061440;28;20661;-58
2021/05/20 05:15:13;;;;;;;42.90;32.30;;;;;;;;;;2063749;28;20627;-57
2021/05/20 05:16:13;;;;;;;41.35;32.08;;;;;;;;;;2071957;28;20184;-59
2021/05/20 05:17:14;;;;;;;43.88;30.65;;;;;;;;;;2070101;28;20169;-60
2021/05/20 05:18:14;;;;;;;44.55;32.15;;;;;;;;;;2060623;28;20201;-58
2021/05/20 05:19:14;;;;;;;41.38;29.63;;;;;;;;;;2064202;28;20190;-59
2021/05/20 05:20:14;;;;;;;38.38;30.58;;;;;;;;;;2072093;28;20281;-58
2021/05/20 05:21:15;;;;;;;42.08;31.20;;;;;;;;;;2069888;28;20212;-58
2021/05/20 05:22:15;;;;;;;46.83;31.65;;;;;;;;;;2064570;28;20181;-59
2021/05/20 05:23:20;;;;;;;40.75;32.03;;;;;;;;;;2054069;28;20178;-53
2021/05/20 05:24:20;;;;;;;39.92;29.90;;;;;;;;;;2063548;28;20757;-58
2021/05/20 05:25:21;;;;;;;41.25;32.35;;;;;;;;;;2070309;28;20276;-56
2021/05/20 05:26:22;;;;;;;43.20;33.95;;;;;;;;;;2051635;28;20169;-59
2021/05/20 05:27:23;;;;;;;42.25;31.70;;;;;;;;;;2044032;28;20184;-55
2021/05/20 05:28:23;;;;;;;40.67;31.83;;;;;;;;;;2061512;28;20234;-57
2021/05/20 05:29:24;;;;;;;38.97;31.00;;;;;;;;;;2070710;28;20192;-56
2021/05/20 05:30:25;;;;;;;38.28;29.92;;;;;;;;;;2069129;28;20205;-60
2021/05/20 05:31:25;;;;;;;39.13;31.63;;;;;;;;;;2069343;28;20535;-60
2021/05/20 05:32:26;;;;;;;42.35;32.35;;;;;;;;;;2069944;28;20678;-55
2021/05/20 05:33:26;;;;;;;43.67;33.38;;;;;;;;;;2069603;28;20552;-58
2021/05/20 05:34:26;;;;;;;41.97;32.92;;;;;;;;;;2058812;28;20198;-57
2021/05/20 05:35:27;;;;;;;46.78;34.53;;;;;;;;;;2061030;28;20213;-59
2021/05/20 05:36:27;;;;;;;44.53;32.58;;;;;;;;;;2067534;28;20609;-56
2021/05/20 05:37:27;;;;;;;43.90;33.25;;;;;;;;;;2069110;28;20314;-56
2021/05/20 05:38:28;;;;;;;40.92;33.03;;;;;;;;;;2070302;28;20177;-57
2021/05/20 05:39:28;;;;;;;40.13;32.03;;;;;;;;;;2068895;28;20181;-58
2021/05/20 05:40:30;;;;;;;41.38;31.23;;;;;;;;;;2070447;28;20205;-54
2021/05/20 05:41:30;;;;;;;36.78;30.60;;;;;;;;;;2067711;28;20169;-57
2021/05/20 05:42:30;;;;;;;36.60;29.25;;;;;;;;;;2070232;28;20285;-59
2021/05/20 05:43:30;;;;;;;34.38;28.83;;;;;;;;;;2059000;28;20819;-55
2021/05/20 05:44:31;;;;;;;36.28;29.70;;;;;;;;;;2061508;28;20198;-57
2021/05/20 05:45:31;;;;;;;34.40;28.85;;;;;;;;;;2070103;28;20177;-55
2021/05/20 05:46:31;;;;;;;36.03;29.23;;;;;;;;;;2066698;28;20339;-59
2021/05/20 05:47:32;;;;;;;35.00;28.95;;;;;;;;;;2063030;28;20240;-59
2021/05/20 05:48:32;;;;;;;32.95;29.20;;;;;;;;;;2051530;28;20213;-59
2021/05/20 05:49:37;;;;;;;36.35;29.85;;;;;;;;;;2060779;28;20173;-58
2021/05/20 05:50:39;;;;;;;32.95;28.27;;;;;;;;;;2069809;28;20184;-55
2021/05/20 05:51:41;;;;;;;35.75;29.95;;;;;;;;;;2070469;28;20204;-58
2021/05/20 05:52:41;;;;;;;35.35;29.55;;;;;;;;;;2062405;28;20213;-59